Time;durP1;ratioP1;P1;durP2;ratioP2;P2;SDS_P1;SDS_P2;PMS_P1;PMS_P2;Temp;Humidity;BMP_temperature;BMP_pressure;BME280_temperature;BME280_humidity;BME280_pressure;Samples;Min_cycle;Max_cycle;Signal;HPM_P1;HPM_P2
2023/03/14 00:01:11;;;;;;;16.00;7.07;;;;;;;18.32;46.46;98926.97;5021586;28;20049;-41
2023/03/14 00:03:38;;;;;;;14.38;6.68;;;;;;;18.32;45.88;98929.63;5022900;28;20065;-40
2023/03/14 00:06:05;;;;;;;15.07;6.43;;;;;;;18.31;46.15;98923.44;5024838;28;20069;-42
2023/03/14 00:08:32;;;;;;;18.38;6.50;;;;;;;18.31;46.10;98923.44;5024589;28;20048;-41
2023/03/14 00:11:06;;;;;;;14.82;6.90;;;;;;;18.30;46.64;98919.13;5024357;28;20053;-38
2023/03/14 00:13:33;;;;;;;14.35;6.18;;;;;;;18.31;46.19;98920.78;5020487;28;20042;-40
2023/03/14 00:16:08;;;;;;;15.77;6.07;;;;;;;18.31;46.16;98919.94;5023051;28;20056;-42
2023/03/14 00:18:35;;;;;;;16.85;6.72;;;;;;;18.30;46.06;98918.31;5020689;28;20049;-40
2023/03/14 00:21:02;;;;;;;16.85;6.28;;;;;;;18.29;46.23;98914.81;5023166;28;20053;-38
2023/03/14 00:23:31;;;;;;;12.30;5.80;;;;;;;18.28;46.37;98918.50;5023782;28;20056;-37
2023/03/14 00:26:23;;;;;;;12.77;5.75;;;;;;;18.26;46.07;98920.56;5024978;28;20056;-40
2023/03/14 00:28:53;;;;;;;13.25;5.68;;;;;;;18.28;46.19;98915.81;5026704;28;20041;-42
2023/03/14 00:31:21;;;;;;;15.20;5.95;;;;;;;18.27;46.49;98918.69;5024524;28;20049;-41
2023/03/14 00:33:47;;;;;;;13.50;5.53;;;;;;;18.25;46.09;98918.88;5020738;28;20042;-40
2023/03/14 00:36:16;;;;;;;18.65;5.90;;;;;;;18.24;46.39;98915.38;5023898;28;20061;-38
2023/03/14 00:38:47;;;;;;;10.65;4.57;;;;;;;18.23;46.07;98910.22;5017608;28;20041;-39
2023/03/14 00:41:17;;;;;;;15.43;5.45;;;;;;;18.22;46.21;98906.72;5025072;28;20049;-39
2023/03/14 00:43:44;;;;;;;12.35;5.00;;;;;;;18.22;46.27;98913.94;5020907;28;20067;-41
2023/03/14 00:46:11;;;;;;;14.57;5.10;;;;;;;18.21;46.40;98921.16;5024657;28;20045;-41
2023/03/14 00:48:38;;;;;;;14.13;5.32;;;;;;;18.20;46.23;98924.84;5020521;28;20065;-43
2023/03/14 00:51:06;;;;;;;12.75;4.95;;;;;;;18.19;46.19;98917.03;5020774;28;20052;-41
2023/03/14 00:53:38;;;;;;;12.38;5.25;;;;;;;18.17;46.06;98929.78;5024733;28;20137;-39
2023/03/14 00:56:07;;;;;;;13.48;4.97;;;;;;;18.18;46.30;98934.97;5021154;28;20046;-41
2023/03/14 00:58:34;;;;;;;10.80;5.07;;;;;;;18.17;46.24;98944.06;5025440;28;20054;-40
2023/03/14 01:01:30;;;;;;;11.63;4.53;;;;;;;18.14;46.17;98940.94;5022182;28;20056;-40
2023/03/14 01:03:56;;;;;;;12.40;4.72;;;;;;;18.15;46.33;98927.31;5019788;28;20432;-40
2023/03/14 01:06:28;;;;;;;10.75;4.60;;;;;;;18.15;46.16;98938.03;5023614;28;20067;-38
2023/03/14 01:08:56;;;;;;;12.45;4.68;;;;;;;18.14;46.66;98924.84;5018836;28;20046;-42
2023/03/14 01:11:29;;;;;;;10.77;4.13;;;;;;;18.13;46.34;98923.19;5023238;28;20045;-40
2023/03/14 01:13:56;;;;;;;8.52;4.22;;;;;;;18.11;46.49;98931.44;5024620;28;20061;-40
2023/03/14 01:16:25;;;;;;;9.93;3.90;;;;;;;18.11;46.32;98927.94;5023202;28;20124;-42
2023/03/14 01:18:52;;;;;;;8.77;3.25;;;;;;;18.10;46.51;98927.09;5020423;28;20045;-40
2023/03/14 01:21:27;;;;;;;10.27;4.47;;;;;;;18.09;46.25;98921.94;5025665;28;20053;-39
2023/03/14 01:23:56;;;;;;;8.85;4.13;;;;;;;18.07;46.32;98924.81;5019227;28;20434;-43
2023/03/14 01:26:25;;;;;;;10.45;4.30;;;;;;;18.07;46.91;98914.09;5020312;28;20056;-41
2023/03/14 01:28:55;;;;;;;10.20;4.13;;;;;;;18.07;46.30;98924.00;5020162;28;20045;-42
2023/03/14 01:31:22;;;;;;;10.85;4.10;;;;;;;18.06;46.49;98933.91;5017199;28;20153;-39
2023/03/14 01:33:49;;;;;;;10.43;3.78;;;;;;;18.04;46.93;98930.56;5022121;28;20095;-41
2023/03/14 01:36:16;;;;;;;8.27;3.50;;;;;;;18.03;46.71;98931.63;5023946;28;20053;-38
2023/03/14 01:38:43;;;;;;;10.20;3.67;;;;;;;18.03;46.60;98920.06;5019854;28;20338;-40
2023/03/14 01:41:14;;;;;;;10.10;3.25;;;;;;;18.02;46.83;98921.09;5022297;28;20045;-40
2023/03/14 01:43:41;;;;;;;11.40;4.35;;;;;;;18.00;46.74;98919.44;5018316;28;20046;-41
2023/03/14 01:46:08;;;;;;;9.00;3.35;;;;;;;17.99;46.57;98915.09;5024027;28;20425;-39
2023/03/14 01:48:50;;;;;;;10.07;3.65;;;;;;;17.99;46.74;98919.63;5021041;28;20099;-40
2023/03/14 01:51:38;;;;;;;7.93;3.10;;;;;;;17.96;46.57;98907.44;5019304;28;20085;-40
2023/03/14 01:54:11;;;;;;;7.72;3.15;;;;;;;17.96;46.73;98920.84;5022667;28;20057;-42
2023/03/14 01:56:40;;;;;;;10.43;3.63;;;;;;;17.96;46.68;98915.50;5022093;28;20050;-42
2023/03/14 01:59:10;;;;;;;10.00;3.33;;;;;;;17.97;46.73;98911.81;5018095;28;20041;-40
2023/03/14 02:01:40;;;;;;;7.95;3.15;;;;;;;17.94;46.78;98909.53;5018289;28;20053;-39
2023/03/14 02:04:08;;;;;;;8.20;3.10;;;;;;;17.94;46.88;98898.81;5019818;28;20056;-38
2023/03/14 02:06:44;;;;;;;12.95;3.22;;;;;;;17.93;46.83;98907.03;5022949;28;20235;-40
2023/03/14 02:09:11;;;;;;;7.45;3.50;;;;;;;17.95;46.84;98889.72;5020268;28;20046;-40
2023/03/14 02:11:38;;;;;;;8.88;3.08;;;;;;;17.93;46.65;98885.56;5017034;28;20050;-38
2023/03/14 02:14:05;;;;;;;6.43;2.60;;;;;;;17.92;46.66;98883.94;5023486;28;20050;-41
2023/03/14 02:16:32;;;;;;;5.03;2.63;;;;;;;17.91;46.52;98884.97;5024162;28;20141;-41
2023/03/14 02:18:58;;;;;;;9.27;3.30;;;;;;;17.91;46.70;98888.47;5015599;28;20138;-43
2023/03/14 02:22:03;;;;;;;6.25;2.90;;;;;;;17.89;46.47;98876.28;5021275;28;20529;-40
2023/03/14 02:24:57;;;;;;;8.25;3.17;;;;;;;17.89;46.88;98881.66;5020588;28;20049;-41
2023/03/14 02:27:23;;;;;;;7.82;2.72;;;;;;;17.89;46.45;98874.47;5024271;28;20604;-42
2023/03/14 02:29:55;;;;;;;8.13;2.33;;;;;;;17.88;46.96;98871.97;5020313;28;20045;-39
2023/03/14 02:32:23;;;;;;;11.48;3.08;;;;;;;17.87;46.69;98867.63;5021236;28;20045;-40
2023/03/14 02:34:54;;;;;;;5.53;2.28;;;;;;;17.87;47.14;98878.34;5023130;28;20052;-37
2023/03/14 02:37:24;;;;;;;6.25;2.30;;;;;;;17.87;46.88;98883.72;5023192;28;20057;-41
2023/03/14 02:39:51;;;;;;;9.43;2.40;;;;;;;17.84;46.80;98873.38;5019028;28;20433;-41
2023/03/14 02:42:17;;;;;;;8.02;2.08;;;;;;;17.83;47.08;98869.88;5022860;28;20049;-38
2023/03/14 02:45:12;;;;;;;7.90;2.38;;;;;;;17.82;46.90;98864.75;5025857;28;20457;-40
2023/03/14 02:47:44;;;;;;;6.22;2.05;;;;;;;17.82;47.27;98856.69;5023965;28;20063;-41
2023/03/14 02:50:17;;;;;;;5.85;2.30;;;;;;;17.81;46.95;98865.75;5018293;28;20037;-41
2023/03/14 02:52:43;;;;;;;6.77;2.30;;;;;;;17.80;46.79;98866.78;5024946;28;20049;-39
2023/03/14 02:55:10;;;;;;;7.38;1.92;;;;;;;17.79;47.03;98863.28;5016345;28;20477;-42
2023/03/14 02:57:36;;;;;;;11.07;2.60;;;;;;;17.78;46.97;98864.31;5019816;28;20053;-42
2023/03/14 03:00:04;;;;;;;7.22;2.53;;;;;;;17.78;46.73;98853.59;5019106;28;20048;-41
2023/03/14 03:02:31;;;;;;;7.38;2.45;;;;;;;17.76;46.87;98851.09;5022362;28;20051;-41
2023/03/14 03:04:58;;;;;;;7.28;2.15;;;;;;;17.76;47.35;98861.81;5017936;28;20050;-39
2023/03/14 03:07:24;;;;;;;7.45;2.58;;;;;;;17.75;46.98;98851.31;5022275;28;20049;-39
2023/03/14 03:09:51;;;;;;;5.63;2.00;;;;;;;17.76;47.44;98858.31;5020437;28;20052;-41
2023/03/14 03:12:17;;;;;;;8.68;2.47;;;;;;;17.74;47.03;98861.19;5017948;28;20053;-42
2023/03/14 03:14:44;;;;;;;4.15;1.80;;;;;;;17.73;46.79;98856.03;5018703;28;20050;-39
2023/03/14 03:17:10;;;;;;;4.60;1.73;;;;;;;17.73;47.02;98850.66;5018800;28;20064;-41
2023/03/14 03:19:38;;;;;;;6.95;2.75;;;;;;;17.73;47.03;98853.34;5015376;28;20045;-40
2023/03/14 03:22:04;;;;;;;5.40;1.98;;;;;;;17.72;47.07;98849.81;5019915;28;20049;-40
2023/03/14 03:24:31;;;;;;;6.28;2.30;;;;;;;17.72;47.21;98841.78;5020662;28;20350;-39
2023/03/14 03:26:57;;;;;;;7.75;2.00;;;;;;;17.70;47.21;98846.53;5023098;28;20053;-39
2023/03/14 03:29:24;;;;;;;6.43;2.22;;;;;;;17.70;46.83;98841.16;5018124;28;20046;-41
2023/03/14 03:31:50;;;;;;;5.50;2.00;;;;;;;17.69;47.10;98844.88;5025382;28;20092;-40
2023/03/14 03:34:17;;;;;;;6.45;2.35;;;;;;;17.68;46.93;98840.53;5020360;28;20064;-42
2023/03/14 03:36:44;;;;;;;8.68;2.63;;;;;;;17.68;47.29;98837.84;5022467;28;20050;-42
2023/03/14 03:39:10;;;;;;;5.45;1.90;;;;;;;17.68;46.97;98845.88;5019997;28;20049;-40
2023/03/14 03:41:37;;;;;;;7.15;2.20;;;;;;;17.68;47.27;98840.53;5022715;28;20053;-41
2023/03/14 03:44:03;;;;;;;10.48;2.33;;;;;;;17.68;46.69;98840.53;5017423;28;20042;-38
2023/03/14 03:46:30;;;;;;;4.50;1.70;;;;;;;17.68;47.14;98837.84;5015313;28;20438;-40
2023/03/14 03:48:59;;;;;;;7.75;1.85;;;;;;;17.67;47.01;98843.41;5019744;28;20054;-40
2023/03/14 03:51:27;;;;;;;9.77;2.72;;;;;;;17.67;47.13;98838.06;5021792;28;20452;-40
2023/03/14 03:53:53;;;;;;;5.57;1.95;;;;;;;17.66;46.72;98845.28;5019133;28;20430;-41
2023/03/14 03:56:20;;;;;;;5.03;1.65;;;;;;;17.65;47.09;98846.31;5020071;28;20060;-42
2023/03/14 03:58:46;;;;;;;6.97;1.60;;;;;;;17.66;47.25;98841.78;5020767;28;20076;-40
2023/03/14 04:01:13;;;;;;;5.53;2.40;;;;;;;17.65;46.97;98846.31;5018075;28;20323;-39
2023/03/14 04:03:40;;;;;;;5.32;1.63;;;;;;;17.65;47.01;98835.59;5020430;28;20104;-40
2023/03/14 04:06:12;;;;;;;7.32;2.10;;;;;;;17.64;47.37;98836.59;5022915;28;20045;-41
2023/03/14 04:08:40;;;;;;;4.72;1.90;;;;;;;17.65;46.81;98840.13;5028954;28;20049;-39
2023/03/14 04:11:07;;;;;;;6.82;1.92;;;;;;;17.64;47.38;98836.59;5020023;28;20125;-41
2023/03/14 04:13:33;;;;;;;8.43;2.00;;;;;;;17.63;47.43;98834.94;5023849;28;20057;-38
2023/03/14 04:16:00;;;;;;;7.07;2.08;;;;;;;17.63;47.19;98834.94;5027577;28;20045;-41
2023/03/14 04:18:27;;;;;;;5.97;2.03;;;;;;;17.63;47.15;98832.25;5025031;28;20080;-40
2023/03/14 04:20:55;;;;;;;3.95;1.65;;;;;;;17.63;47.19;98829.59;5037049;28;20042;-42
2023/03/14 04:23:26;;;;;;;5.45;1.73;;;;;;;17.61;47.28;98850.41;5023554;28;20049;-37
2023/03/14 04:25:53;;;;;;;6.50;2.13;;;;;;;17.62;47.26;98841.34;5022688;28;20050;-42
2023/03/14 04:28:19;;;;;;;6.82;1.70;;;;;;;17.60;47.34;98843.38;5019183;28;20060;-41
2023/03/14 04:30:46;;;;;;;6.03;1.98;;;;;;;17.60;47.56;98843.38;5020110;28;20038;-42
2023/03/14 04:33:16;;;;;;;6.32;1.67;;;;;;;17.60;47.04;98837.19;5021121;28;20141;-41
2023/03/14 04:35:44;;;;;;;6.18;1.67;;;;;;;17.59;47.31;98833.69;5021938;28;20051;-40
2023/03/14 04:38:11;;;;;;;2.97;1.30;;;;;;;17.59;47.58;98833.69;5024258;28;20069;-40
2023/03/14 04:40:39;;;;;;;6.57;1.63;;;;;;;17.58;47.34;98834.72;5026461;28;20128;-41
2023/03/14 04:43:07;;;;;;;5.70;1.45;;;;;;;17.58;47.27;98839.25;5020259;28;20056;-40
2023/03/14 04:45:34;;;;;;;7.60;2.00;;;;;;;17.57;46.97;98829.56;5024625;28;20048;-42
2023/03/14 04:48:00;;;;;;;5.00;1.90;;;;;;;17.57;47.65;98840.25;5021246;28;20045;-38
2023/03/14 04:50:27;;;;;;;4.82;1.30;;;;;;;17.56;47.58;98827.91;5023963;28;20418;-39
2023/03/14 04:52:53;;;;;;;6.68;1.63;;;;;;;17.54;47.36;98822.75;5023450;28;20347;-40
2023/03/14 04:55:20;;;;;;;5.20;1.55;;;;;;;17.54;47.38;98827.28;5022978;28;20050;-40
2023/03/14 04:57:49;;;;;;;4.07;1.60;;;;;;;17.53;47.33;98815.75;5023028;28;20049;-41
2023/03/14 05:00:18;;;;;;;5.60;1.45;;;;;;;17.53;47.35;98831.81;5024335;28;20059;-39
2023/03/14 05:02:45;;;;;;;5.55;1.75;;;;;;;17.52;47.29;98811.41;5025381;28;20132;-39
2023/03/14 05:05:11;;;;;;;3.78;1.60;;;;;;;17.52;47.90;98827.47;5017908;28;20046;-40
2023/03/14 05:07:38;;;;;;;7.65;1.90;;;;;;;17.51;47.13;98818.63;5042698;28;20049;-40
2023/03/14 05:10:05;;;;;;;3.05;1.45;;;;;;;17.51;47.28;98823.97;5021135;28;20053;-41
2023/03/14 05:12:31;;;;;;;7.03;1.80;;;;;;;17.51;47.63;98828.50;5017809;28;20415;-42
2023/03/14 05:14:58;;;;;;;6.03;1.58;;;;;;;17.51;47.48;98825.81;5026018;28;20045;-41
2023/03/14 05:17:24;;;;;;;5.97;1.80;;;;;;;17.50;47.78;98832.22;5018711;28;20223;-41
2023/03/14 05:19:51;;;;;;;7.20;1.67;;;;;;;17.50;47.16;98821.50;5023571;28;20044;-38
2023/03/14 05:22:18;;;;;;;4.70;1.42;;;;;;;17.49;47.48;98815.31;5021694;28;20093;-42
2023/03/14 05:24:44;;;;;;;5.72;1.48;;;;;;;17.48;47.29;98802.94;5023384;28;20049;-40
2023/03/14 05:27:11;;;;;;;3.92;1.58;;;;;;;17.47;47.53;98798.63;5022710;28;20069;-39
2023/03/14 05:29:37;;;;;;;4.30;2.15;;;;;;;17.45;47.85;98792.66;5019854;28;20449;-37
2023/03/14 05:32:04;;;;;;;5.38;1.50;;;;;;;17.46;47.50;98801.50;5021016;28;20046;-39
2023/03/14 05:34:31;;;;;;;8.63;1.80;;;;;;;17.44;47.59;98795.50;5022249;28;20050;-37
2023/03/14 05:36:57;;;;;;;5.60;1.60;;;;;;;17.44;47.52;98799.00;5020994;28;20086;-40
2023/03/14 05:39:24;;;;;;;4.60;1.58;;;;;;;17.44;47.86;98796.31;5027057;28;20425;-40
2023/03/14 05:41:50;;;;;;;3.88;1.77;;;;;;;17.42;47.70;98798.41;5019098;28;20449;-40
2023/03/14 05:44:17;;;;;;;3.13;1.50;;;;;;;17.41;48.05;98799.44;5019466;28;20057;-39
2023/03/14 05:46:43;;;;;;;6.60;1.80;;;;;;;17.41;48.00;98801.28;5021632;28;20350;-40
2023/03/14 05:49:10;;;;;;;3.90;1.77;;;;;;;17.41;48.11;98801.28;5020049;28;20052;-39
2023/03/14 05:51:36;;;;;;;4.25;1.52;;;;;;;17.39;48.09;98798.78;5020287;28;20461;-41
2023/03/14 05:54:03;;;;;;;3.90;1.35;;;;;;;17.37;48.17;98806.22;5025727;28;20055;-38
2023/03/14 05:56:30;;;;;;;4.03;1.50;;;;;;;17.37;48.25;98830.31;5018547;28;20050;-41
2023/03/14 05:58:56;;;;;;;6.88;1.83;;;;;;;17.36;47.93;98830.50;5020464;28;20352;-41
2023/03/14 06:01:23;;;;;;;5.55;1.83;;;;;;;17.35;48.40;98843.06;5019864;28;20050;-41
2023/03/14 06:03:49;;;;;;;6.47;1.70;;;;;;;17.35;47.84;98840.38;5023649;28;20045;-38
2023/03/14 06:06:16;;;;;;;5.22;2.33;;;;;;;17.36;47.82;98846.56;5021051;28;20068;-38
2023/03/14 06:08:43;;;;;;;7.75;2.22;;;;;;;17.35;48.39;98861.81;5021657;28;20045;-41
2023/03/14 06:11:09;;;;;;;6.90;2.70;;;;;;;17.35;47.98;98882.41;5021364;28;20334;-38
2023/03/14 06:13:36;;;;;;;9.40;3.85;;;;;;;17.35;47.84;98890.44;5020265;28;20053;-42
2023/03/14 06:16:03;;;;;;;8.52;3.55;;;;;;;17.34;48.61;98896.81;5020596;28;20056;-39
2023/03/14 06:18:29;;;;;;;13.48;4.60;;;;;;;17.34;48.53;98899.50;5016048;28;20057;-38
2023/03/14 06:20:56;;;;;;;12.68;5.18;;;;;;;17.32;48.43;98907.72;5018316;28;20057;-38
2023/03/14 06:23:23;;;;;;;15.77;5.80;;;;;;;17.34;48.81;98912.88;5023911;28;20049;-38
2023/03/14 06:25:50;;;;;;;15.30;5.60;;;;;;;17.35;49.01;98925.25;5022791;28;20053;-38
2023/03/14 06:28:17;;;;;;;17.67;5.38;;;;;;;17.42;49.30;98928.81;5024976;28;20052;-39
2023/03/14 06:30:43;;;;;;;17.15;6.07;;;;;;;17.53;48.86;98933.63;5022029;28;20041;-41
2023/03/14 06:33:10;;;;;;;19.25;6.68;;;;;;;17.66;48.75;98944.41;5024349;28;20128;-40
2023/03/14 06:35:37;;;;;;;18.55;6.50;;;;;;;17.78;48.26;98951.91;5019089;28;20466;-39
2023/03/14 06:38:03;;;;;;;16.83;7.68;;;;;;;17.87;48.24;98953.41;5019120;28;20136;-38
2023/03/14 06:40:30;;;;;;;16.15;7.10;;;;;;;17.98;48.08;98964.38;5017811;28;20057;-39
2023/03/14 06:42:56;;;;;;;21.52;8.05;;;;;;;18.07;48.28;98966.91;5023372;28;20442;-39
2023/03/14 06:45:23;;;;;;;19.40;6.95;;;;;;;18.15;48.14;98972.91;5022905;28;20058;-40
2023/03/14 06:47:49;;;;;;;15.20;6.57;;;;;;;18.23;48.01;98982.63;5018840;28;20088;-41
2023/03/14 06:50:16;;;;;;;23.65;6.97;;;;;;;18.30;47.82;98986.19;5015120;28;20060;-40
2023/03/14 06:52:47;;;;;;;16.25;6.95;;;;;;;18.36;47.44;98989.91;5022255;28;20053;-42
2023/03/14 06:55:16;;;;;;;15.90;6.85;;;;;;;18.43;47.73;98999.63;5023192;28;20049;-40
2023/03/14 06:57:43;;;;;;;24.00;6.72;;;;;;;18.48;47.54;99007.88;5019596;28;20091;-39
2023/03/14 07:00:12;;;;;;;20.23;7.22;;;;;;;18.54;47.28;99017.00;5018763;28;20049;-41
2023/03/14 07:02:39;;;;;;;15.90;7.05;;;;;;;18.59;47.40;99019.91;5021984;28;20060;-41
2023/03/14 07:05:10;;;;;;;15.80;6.25;;;;;;;18.65;47.58;99029.00;5022194;28;20049;-41
2023/03/14 07:07:36;;;;;;;14.55;6.03;;;;;;;18.68;47.31;99037.47;5017884;28;20085;-41
2023/03/14 07:10:03;;;;;;;19.52;6.32;;;;;;;18.72;47.28;99049.47;5020496;28;20164;-38
2023/03/14 07:12:30;;;;;;;14.70;6.03;;;;;;;18.76;46.98;99063.31;5021978;28;20055;-40
2023/03/14 07:14:56;;;;;;;16.25;6.43;;;;;;;18.80;47.32;99075.31;5019289;28;20144;-40
2023/03/14 07:17:37;;;;;;;15.88;5.97;;;;;;;18.83;46.88;99092.88;5020852;28;20437;-39
2023/03/14 07:20:04;;;;;;;13.02;5.68;;;;;;;18.88;47.38;99098.47;5015542;28;20085;-41
2023/03/14 07:22:33;;;;;;;12.88;5.70;;;;;;;18.90;47.25;99109.84;5021869;28;20057;-41
2023/03/14 07:25:00;;;;;;;11.38;5.75;;;;;;;18.93;46.77;99122.84;5021301;28;20135;-41
2023/03/14 07:27:27;;;;;;;13.40;4.95;;;;;;;18.95;47.18;99126.16;5019862;28;20829;-38
2023/03/14 07:29:53;;;;;;;11.70;5.25;;;;;;;18.98;46.88;99136.50;5019570;28;20624;-41
2023/03/14 07:32:20;;;;;;;13.88;5.13;;;;;;;18.99;46.84;99146.22;5020511;28;20079;-39
2023/03/14 07:34:46;;;;;;;10.43;4.75;;;;;;;19.01;46.99;99154.88;5022018;28;20361;-40
2023/03/14 07:37:13;;;;;;;15.43;4.97;;;;;;;19.03;46.89;99158.22;5023117;28;20529;-40
2023/03/14 07:39:40;;;;;;;10.27;5.40;;;;;;;19.03;46.94;99171.63;5019820;28;20050;-42
2023/03/14 07:42:06;;;;;;;11.50;5.22;;;;;;;19.03;46.76;99171.63;5021646;28;20045;-41
2023/03/14 07:44:33;;;;;;;10.20;5.22;;;;;;;19.01;47.09;99183.59;5026499;28;20085;-40
2023/03/14 07:46:59;;;;;;;10.90;5.15;;;;;;;18.97;46.85;99200.13;5023875;28;20053;-42
2023/03/14 07:49:26;;;;;;;16.40;5.53;;;;;;;18.95;46.47;99217.44;5027121;28;20061;-40
2023/03/14 07:51:53;;;;;;;12.40;5.40;;;;;;;18.91;47.29;99216.19;5024623;28;20132;-40
2023/03/14 07:54:20;;;;;;;10.90;5.10;;;;;;;18.86;46.79;99230.22;5026994;28;20046;-39
2023/03/14 07:56:46;;;;;;;9.32;4.65;;;;;;;18.83;46.36;99253.94;5023361;28;20054;-39
2023/03/14 07:59:13;;;;;;;12.95;5.40;;;;;;;18.78;46.54;99267.97;5027091;28;20058;-39
2023/03/14 08:01:39;;;;;;;10.30;4.72;;;;;;;18.73;46.84;99289.16;5023301;28;20037;-42
2023/03/14 08:04:06;;;;;;;11.65;4.60;;;;;;;18.70;47.00;99294.94;5019854;28;20081;-40
2023/03/14 08:06:35;;;;;;;11.20;4.68;;;;;;;18.66;47.33;99315.94;5025753;28;20080;-41
2023/03/14 08:09:02;;;;;;;9.88;4.18;;;;;;;18.59;47.20;99325.78;5023467;28;20120;-40
2023/03/14 08:11:29;;;;;;;7.88;4.22;;;;;;;18.58;47.41;99334.88;5018721;28;20064;-40
2023/03/14 08:13:55;;;;;;;7.53;3.83;;;;;;;18.60;47.26;99348.09;5024861;28;20053;-39
2023/03/14 08:16:22;;;;;;;9.20;4.05;;;;;;;18.63;47.31;99363.81;5023001;28;20057;-39
2023/03/14 08:18:49;;;;;;;8.10;3.70;;;;;;;18.68;47.38;99378.28;5022338;28;20089;-41
2023/03/14 08:21:15;;;;;;;6.82;3.38;;;;;;;18.73;46.88;99381.28;5032504;28;20052;-41
2023/03/14 08:23:42;;;;;;;6.97;3.78;;;;;;;18.78;46.95;99394.13;5021376;28;20140;-39
2023/03/14 08:26:08;;;;;;;7.50;3.60;;;;;;;18.83;46.75;99407.78;5023613;28;20046;-42
2023/03/14 08:28:35;;;;;;;9.13;3.42;;;;;;;18.87;46.89;99417.09;5026683;28;20137;-42
2023/03/14 08:31:02;;;;;;;8.00;3.55;;;;;;;18.92;47.00;99427.25;5023506;28;20183;-40
2023/03/14 08:33:29;;;;;;;6.22;3.13;;;;;;;18.95;46.70;99437.63;5022888;28;20076;-41
2023/03/14 08:49:44;;;;;;;8.00;3.22;;;;;;;18.89;47.43;99511.69;5086432;27;20993;-29
2023/03/14 08:52:11;;;;;;;7.60;3.40;;;;;;;18.97;47.28;99518.78;5088210;28;20138;-30
2023/03/14 08:54:37;;;;;;;7.50;3.25;;;;;;;18.99;46.43;99524.81;5084990;28;20059;-30
2023/03/14 08:57:04;;;;;;;7.45;2.75;;;;;;;18.99;46.45;99536.38;5083830;28;20059;-30
2023/03/14 08:59:31;;;;;;;5.15;2.40;;;;;;;18.99;46.68;99539.06;5085475;28;20049;-29
2023/03/14 09:01:58;;;;;;;7.13;2.92;;;;;;;18.96;46.62;99541.31;5085094;28;20139;-30
2023/03/14 09:04:24;;;;;;;6.55;2.95;;;;;;;18.94;46.96;99557.63;5080878;28;20048;-30
2023/03/14 09:06:51;;;;;;;7.13;2.75;;;;;;;18.90;46.72;99558.19;5083702;28;20052;-30
2023/03/14 09:09:18;;;;;;;5.40;2.72;;;;;;;18.89;46.86;99572.63;5085670;28;20102;-30
2023/03/14 09:11:44;;;;;;;4.78;2.60;;;;;;;18.86;46.84;99586.44;5082656;28;20082;-31
2023/03/14 09:14:11;;;;;;;5.40;2.30;;;;;;;18.85;47.15;99595.50;5084461;28;20051;-32
2023/03/14 09:16:38;;;;;;;4.72;2.45;;;;;;;18.83;47.10;99606.44;5079346;28;20040;-31
2023/03/14 09:19:05;;;;;;;6.07;2.60;;;;;;;18.80;46.99;99614.84;5081490;28;20040;-30
2023/03/14 09:21:32;;;;;;;4.60;2.60;;;;;;;18.79;46.84;99626.63;5085269;28;20131;-31
2023/03/14 09:23:58;;;;;;;4.68;2.30;;;;;;;18.77;47.02;99635.88;5085704;28;20048;-31
2023/03/14 09:26:25;;;;;;;5.07;2.05;;;;;;;18.76;47.40;99639.59;5086075;28;20058;-31
2023/03/14 09:28:51;;;;;;;7.38;2.65;;;;;;;18.73;47.13;99655.06;5084626;28;20716;-30
2023/03/14 09:31:18;;;;;;;4.60;2.40;;;;;;;18.74;47.07;99664.75;5081133;28;20092;-31
2023/03/14 09:33:45;;;;;;;4.35;2.10;;;;;;;18.78;46.57;99677.81;5083457;28;20148;-30
2023/03/14 09:36:11;;;;;;;3.33;2.03;;;;;;;18.81;46.59;99689.00;5088713;28;20059;-30
2023/03/14 09:38:38;;;;;;;6.90;3.00;;;;;;;18.86;46.73;99691.13;5081499;28;20063;-30
2023/03/14 09:41:17;;;;;;;4.13;1.80;;;;;;;18.89;46.96;99696.94;5084398;28;20127;-30
2023/03/14 09:43:46;;;;;;;3.58;1.88;;;;;;;18.94;46.66;99705.28;5084207;28;20052;-30
2023/03/14 09:46:14;;;;;;;6.38;2.33;;;;;;;18.98;46.47;99716.50;5080746;28;20059;-31
2023/03/14 09:48:41;;;;;;;5.20;1.65;;;;;;;19.01;46.63;99718.78;5082833;28;20074;-31
2023/03/14 09:51:14;;;;;;;4.45;1.90;;;;;;;19.03;46.56;99729.34;5071524;28;20056;-32
2023/03/14 09:53:44;;;;;;;6.63;2.42;;;;;;;19.04;46.31;99729.16;5070779;28;20048;-31
2023/03/14 09:56:31;;;;;;;5.25;2.22;;;;;;;19.02;46.34;99744.63;5071876;28;20446;-31
2023/03/14 09:59:00;;;;;;;5.10;2.00;;;;;;;19.02;46.34;99754.56;5071430;28;20044;-31
2023/03/14 10:01:30;;;;;;;4.50;2.15;;;;;;;18.98;46.39;99776.41;5070886;28;20430;-31
2023/03/14 10:04:10;;;;;;;3.10;1.70;;;;;;;18.95;46.34;99792.03;5071832;28;20672;-30
2023/03/14 10:06:36;;;;;;;6.80;2.20;;;;;;;18.91;46.18;99802.31;5071508;28;20147;-30
2023/03/14 10:09:05;;;;;;;5.85;2.33;;;;;;;18.88;46.38;99823.34;5069038;28;20051;-32
2023/03/14 10:11:32;;;;;;;5.63;2.15;;;;;;;18.82;46.49;99818.72;5067957;28;20104;-29
2023/03/14 10:14:02;;;;;;;4.30;1.80;;;;;;;18.78;46.47;99822.78;5071403;28;20049;-29
2023/03/14 10:16:34;;;;;;;4.25;1.90;;;;;;;18.75;46.68;99829.34;5070821;28;20044;-30
2023/03/14 10:19:06;;;;;;;3.53;1.63;;;;;;;18.76;47.15;99835.53;5070259;28;20107;-31
2023/03/14 10:21:49;;;;;;;9.23;1.80;;;;;;;18.80;46.85;99844.91;5072967;28;20127;-31
2023/03/14 10:24:24;;;;;;;5.53;2.20;;;;;;;18.85;46.99;99845.16;5073104;28;20048;-31
2023/03/14 10:26:58;;;;;;;4.15;2.15;;;;;;;18.90;46.95;99872.31;5072111;28;20219;-31
2023/03/14 10:29:25;;;;;;;3.35;1.73;;;;;;;18.93;46.79;99875.44;5070513;28;20048;-30
2023/03/14 10:32:07;;;;;;;4.47;1.80;;;;;;;18.96;46.83;99885.84;5073445;28;20057;-30
2023/03/14 10:34:36;;;;;;;4.47;1.50;;;;;;;19.01;46.70;99893.34;5073703;28;20809;-30
2023/03/14 10:37:21;;;;;;;4.18;1.80;;;;;;;19.03;46.40;99906.59;5073514;28;20094;-29
2023/03/14 10:39:53;;;;;;;5.22;1.88;;;;;;;19.06;46.50;99925.03;5072342;28;20402;-31
2023/03/14 10:42:25;;;;;;;5.65;1.98;;;;;;;19.06;46.72;99925.88;5073510;28;20052;-31
2023/03/14 10:45:19;;;;;;;6.82;1.83;;;;;;;19.04;46.64;99952.06;5074083;28;20351;-31
2023/03/14 10:47:49;;;;;;;4.47;1.90;;;;;;;19.04;46.14;99954.75;5068844;28;20126;-31
2023/03/14 10:50:30;;;;;;;3.45;1.45;;;;;;;19.01;46.34;99965.84;5070323;28;20473;-31
2023/03/14 10:53:05;;;;;;;5.00;1.50;;;;;;;18.98;46.45;99974.28;5071552;28;20135;-31
2023/03/14 10:55:42;;;;;;;4.97;1.75;;;;;;;18.95;46.09;99978.16;5069040;28;20084;-31
2023/03/14 10:58:23;;;;;;;4.82;2.03;;;;;;;18.95;46.35;99988.91;5091124;28;20479;-31
2023/03/14 11:01:11;;;;;;;6.20;1.73;;;;;;;18.96;46.48;99997.78;5070142;28;20057;-31
2023/03/14 11:03:42;;;;;;;4.57;1.75;;;;;;;18.97;46.52;100023.63;5067192;28;20402;-30
2023/03/14 11:06:45;;;;;;;4.78;1.63;;;;;;;18.98;46.50;100028.84;5071426;28;20056;-30
2023/03/14 11:09:23;;;;;;;3.25;1.60;;;;;;;19.03;46.90;100047.09;5063271;28;20120;-30
2023/03/14 11:11:49;;;;;;;7.97;1.85;;;;;;;19.06;46.35;100041.38;5071706;28;20066;-31
2023/03/14 11:14:40;;;;;;;6.68;1.52;;;;;;;19.09;46.13;100054.41;5070603;28;20044;-30
2023/03/14 11:17:20;;;;;;;5.13;1.60;;;;;;;19.12;46.56;100067.50;5070778;28;20056;-31
2023/03/14 11:19:55;;;;;;;5.20;2.03;;;;;;;19.15;46.56;100074.38;5069325;28;20066;-32
2023/03/14 11:22:44;;;;;;;5.18;1.88;;;;;;;19.17;46.58;100086.59;5074867;28;20048;-31
2023/03/14 11:25:35;;;;;;;6.13;1.67;;;;;;;19.21;46.37;100087.88;5070027;28;20060;-31
2023/03/14 11:28:14;;;;;;;3.97;1.52;;;;;;;19.23;46.20;100107.38;5070505;28;20044;-32
2023/03/14 11:30:46;;;;;;;4.55;1.38;;;;;;;19.27;46.27;100109.72;5067308;28;20049;-32
2023/03/14 11:33:18;;;;;;;3.53;1.42;;;;;;;19.29;46.17;100115.72;5070940;28;20445;-32
2023/03/14 11:36:08;;;;;;;3.92;1.33;;;;;;;19.30;45.78;100115.56;5071048;28;20052;-31
2023/03/14 11:38:46;;;;;;;5.28;1.65;;;;;;;19.33;45.73;100133.97;5069673;28;20106;-30
2023/03/14 11:41:31;;;;;;;6.70;1.90;;;;;;;19.34;45.81;100141.06;5067497;28;20325;-32
2023/03/14 11:44:02;;;;;;;3.67;1.33;;;;;;;19.36;45.91;100148.94;5068842;28;20057;-32
2023/03/14 11:46:35;;;;;;;5.43;2.20;;;;;;;19.37;45.63;100150.59;5061157;28;20045;-31
2023/03/14 11:49:22;;;;;;;4.43;1.80;;;;;;;19.38;45.76;100165.72;5059586;28;22501;-30
2023/03/14 11:51:55;;;;;;;5.57;1.60;;;;;;;19.41;45.48;100162.66;5067222;28;20048;-31
2023/03/14 11:54:46;;;;;;;5.05;1.70;;;;;;;19.42;45.44;100175.09;5065707;28;20114;-31